createdAt,value
2023-01-17T00:05:03.619Z,12.30
2023-01-17T00:15:10.347Z,12.30
2023-01-17T00:25:32.747Z,12.50
2023-01-17T00:35:36.817Z,12.60
2023-01-17T00:45:58.318Z,12.80
2023-01-17T00:56:21.967Z,12.70
2023-01-17T01:06:43.472Z,12.90
2023-01-17T01:17:06.368Z,12.90
2023-01-17T01:27:27.794Z,13.20
2023-01-17T01:37:33.164Z,13.50
2023-01-17T01:47:42.035Z,13.90
2023-01-17T01:57:51.179Z,13.90
2023-01-17T02:08:00.273Z,13.90
2023-01-17T02:18:17.505Z,14.20
2023-01-17T02:28:40.306Z,14.20
2023-01-17T02:38:52.787Z,14.40
2023-01-17T02:48:58.108Z,14.40
2023-01-17T02:59:13.633Z,14.60
2023-01-17T03:09:19.234Z,15.40
2023-01-17T03:19:24.281Z,15.70
2023-01-17T03:29:28.157Z,16.10
2023-01-17T03:39:33.277Z,16.30
2023-01-17T03:49:37.470Z,16.40
2023-01-17T03:59:42.675Z,16.40
2023-01-17T04:09:46.524Z,16.40
2023-01-17T04:19:51.643Z,16.50
2023-01-17T04:29:55.539Z,16.30
2023-01-17T04:40:00.762Z,16.40
2023-01-17T04:50:04.598Z,16.30
2023-01-17T05:00:12.035Z,16.30
2023-01-17T05:10:16.617Z,16.20
2023-01-17T05:20:23.472Z,16.00
2023-01-17T05:30:27.682Z,16.00
2023-01-17T05:40:34.401Z,15.90
2023-01-17T05:50:39.452Z,15.90
2023-01-17T06:00:44.848Z,15.70
2023-01-17T06:10:48.706Z,15.40
2023-01-17T06:20:56.683Z,15.30
2023-01-17T06:31:01.148Z,15.20
2023-01-17T06:41:08.555Z,15.10
2023-01-17T06:51:12.654Z,15.00
2023-01-17T07:01:18.818Z,14.90
2023-01-17T07:11:22.894Z,14.80
2023-01-17T07:21:28.545Z,14.60
2023-01-17T07:31:34.349Z,14.40
2023-01-17T07:41:41.558Z,14.40
2023-01-17T07:51:47.771Z,14.40
2023-01-17T08:01:53.242Z,14.50
2023-01-17T08:11:57.082Z,14.60
2023-01-17T08:22:02.536Z,14.60
2023-01-17T08:32:06.651Z,13.10
2023-01-17T08:42:12.029Z,12.70
2023-01-17T08:52:15.913Z,11.80
2023-01-17T09:02:21.733Z,12.00
2023-01-17T09:12:25.526Z,12.10
2023-01-17T09:22:30.654Z,12.40
2023-01-17T09:32:34.652Z,12.60
2023-01-17T09:42:42.269Z,12.80
2023-01-17T09:52:46.402Z,13.00
2023-01-17T10:03:23.827Z,13.40
2023-01-17T10:13:39.570Z,14.30
2023-01-17T10:24:05.239Z,14.70
2023-01-17T10:34:15.591Z,14.90
2023-01-17T10:44:26.614Z,15.50
2023-01-17T10:54:45.392Z,15.40
2023-01-17T11:04:54.661Z,16.70
2023-01-17T11:15:20.066Z,16.80
2023-01-17T11:25:34.705Z,16.80
2023-01-17T11:35:45.277Z,17.30
2023-01-17T11:46:04.380Z,17.40
2023-01-17T11:56:11.706Z,17.40
2023-01-17T12:06:23.195Z,17.20
2023-01-17T12:16:37.090Z,17.40
2023-01-17T12:26:45.729Z,17.90
2023-01-17T12:36:54.000Z,18.20
2023-01-17T12:47:03.815Z,18.50
2023-01-17T12:57:15.873Z,18.00
2023-01-17T13:07:29.026Z,18.20
2023-01-17T13:17:39.891Z,18.10
2023-01-17T13:28:07.574Z,17.20
2023-01-17T13:38:27.524Z,17.20
2023-01-17T13:48:37.392Z,17.30
2023-01-17T13:58:58.756Z,17.00
2023-01-17T14:09:06.711Z,17.50
2023-01-17T14:19:27.309Z,16.70
2023-01-17T14:30:00.368Z,16.60
2023-01-17T14:40:04.304Z,17.00
2023-01-17T14:50:23.200Z,16.50
2023-01-17T15:00:29.497Z,16.70
2023-01-17T15:10:36.907Z,15.90
2023-01-17T15:20:42.681Z,15.50
2023-01-17T15:31:20.112Z,16.00
2023-01-17T15:41:28.685Z,16.40
2023-01-17T15:51:37.291Z,15.60
2023-01-17T16:01:41.011Z,15.20
2023-01-17T16:11:46.427Z,15.10
2023-01-17T16:21:50.440Z,14.30
2023-01-17T16:31:55.473Z,13.90
2023-01-17T16:42:03.347Z,13.70
2023-01-17T16:52:08.367Z,13.20
2023-01-17T17:02:12.096Z,12.80
2023-01-17T17:12:17.439Z,12.60
2023-01-17T17:22:21.186Z,12.40
2023-01-17T17:32:26.277Z,12.10
2023-01-17T17:42:30.579Z,11.90
2023-01-17T17:52:35.858Z,11.70
2023-01-17T18:02:40.006Z,11.60
2023-01-17T18:12:45.141Z,11.20
2023-01-17T18:22:49.023Z,11.00
2023-01-17T18:32:54.407Z,10.70
2023-01-17T18:42:58.323Z,10.70
2023-01-17T18:53:03.555Z,10.10
2023-01-17T19:03:07.574Z,9.90
2023-01-17T19:13:12.668Z,9.80
2023-01-17T19:23:16.336Z,9.80
2023-01-17T19:33:21.594Z,9.90
2023-01-17T19:43:25.994Z,9.80
2023-01-17T19:53:31.457Z,9.70
2023-01-17T20:03:35.272Z,9.60
2023-01-17T20:13:40.457Z,9.40
2023-01-17T20:23:47.183Z,9.40
2023-01-17T20:33:54.321Z,9.40
2023-01-17T20:44:00.505Z,9.30
2023-01-17T20:54:07.032Z,9.50
2023-01-17T21:04:11.480Z,9.30
2023-01-17T21:14:16.731Z,9.30
2023-01-17T21:24:20.768Z,9.20
2023-01-17T21:34:26.039Z,9.30
2023-01-17T21:44:37.013Z,9.30
2023-01-17T21:54:59.971Z,9.30
2023-01-17T22:05:03.688Z,9.30
2023-01-17T22:15:10.209Z,9.20
2023-01-17T22:25:13.953Z,9.20
2023-01-17T22:35:18.977Z,9.00
2023-01-17T22:45:22.751Z,8.90
2023-01-17T22:55:28.186Z,8.80
2023-01-17T23:05:31.772Z,8.80
2023-01-17T23:15:59.040Z,8.60
2023-01-17T23:26:02.824Z,8.60
2023-01-17T23:36:09.556Z,8.60
2023-01-17T23:46:14.139Z,8.60
2023-01-17T23:56:22.032Z,8.60
